Terminal Aerodrome Forecast
Issued by NWS

Current Version | Previous Version | Text Only | Print | Product List | Glossary On
Versions: 1 2 3 4 5 6 7 8 9 10 11 12 13 14 15 16 17 18
000
FTPQ31 PGUM 171743
TAFGUM
TAF

TAF
PTYA 171743Z 1718/1818 21012G22KT P6SM VCSH SCT016 BKN040 OVC120
      TEMPO 1718/1722 23015G30KT 3SM SHRA SCT012 BKN025 OVC050=

USA.gov is the U.S. government's official web portal to all federal, state and local government web resources and services.